createdAt,value
2023-03-12T00:03:35.075Z,6.12
2023-03-12T00:08:36.696Z,6.10
2023-03-12T00:13:35.426Z,6.08
2023-03-12T00:18:35.066Z,6.02
2023-03-12T00:23:43.554Z,6.02
2023-03-12T00:28:44.608Z,5.90
2023-03-12T00:33:44.604Z,5.99
2023-03-12T00:38:48.693Z,5.96
2023-03-12T00:43:48.306Z,5.90
2023-03-12T00:48:46.403Z,5.86
2023-03-12T00:53:47.640Z,5.82
2023-03-12T00:58:46.410Z,5.77
2023-03-12T01:03:44.731Z,5.70
2023-03-12T01:08:43.043Z,5.74
2023-03-12T01:13:44.522Z,5.61
2023-03-12T01:18:46.016Z,5.60
2023-03-12T01:23:44.405Z,5.54
2023-03-12T01:28:42.458Z,5.51
2023-03-12T01:33:45.305Z,5.42
2023-03-12T01:38:43.505Z,5.40
2023-03-12T01:43:41.585Z,5.39
2023-03-12T01:48:46.406Z,5.31
2023-03-12T01:53:47.621Z,5.35
2023-03-12T01:58:45.906Z,5.20
2023-03-12T02:03:43.200Z,5.12
2023-03-12T02:08:45.946Z,5.11
2023-03-12T02:13:46.578Z,5.12
2023-03-12T02:18:45.339Z,5.09
2023-03-12T02:23:57.441Z,5.04
2023-03-12T02:29:02.578Z,5.01
2023-03-12T02:34:03.051Z,4.95
2023-03-12T02:39:06.031Z,4.97
2023-03-12T02:44:12.595Z,4.96
2023-03-12T02:49:14.504Z,4.90
2023-03-12T02:54:15.692Z,4.84
2023-03-12T02:59:18.025Z,4.81
2023-03-12T03:04:19.820Z,4.79
2023-03-12T03:09:22.260Z,4.66
2023-03-12T03:14:21.764Z,4.58
2023-03-12T03:19:24.221Z,4.55
2023-03-12T03:24:22.413Z,4.55
2023-03-12T03:29:24.396Z,4.57
2023-03-12T03:34:25.286Z,4.55
2023-03-12T03:39:26.076Z,4.67
2023-03-12T03:44:24.367Z,4.47
2023-03-12T03:49:23.089Z,4.40
2023-03-12T03:54:20.759Z,4.43
2023-03-12T03:59:20.002Z,4.39
2023-03-12T04:04:21.030Z,4.30
2023-03-12T04:09:21.656Z,4.15
2023-03-12T04:14:20.023Z,4.23
2023-03-12T04:19:24.001Z,4.19
2023-03-12T04:24:25.784Z,4.20
2023-03-12T04:29:26.874Z,4.20
2023-03-12T04:34:27.803Z,4.14
2023-03-12T04:39:29.534Z,4.08
2023-03-12T04:44:27.004Z,4.03
2023-03-12T04:49:26.030Z,4.11
2023-03-12T04:54:25.609Z,4.09
2023-03-12T04:59:25.413Z,4.00
2023-03-12T05:04:23.529Z,4.02
2023-03-12T05:09:22.441Z,3.96
2023-03-12T05:14:20.636Z,3.97
2023-03-12T05:19:22.400Z,3.90
2023-03-12T05:24:23.140Z,4.12
2023-03-12T05:29:23.268Z,4.08
2023-03-12T05:34:31.975Z,4.08
2023-03-12T05:39:33.997Z,4.16
2023-03-12T05:45:01.421Z,4.26
2023-03-12T05:50:01.501Z,4.25
2023-03-12T05:55:04.888Z,4.30
2023-03-12T06:00:04.741Z,4.32
2023-03-12T06:05:14.215Z,4.46
2023-03-12T06:10:14.852Z,4.51
2023-03-12T06:15:15.660Z,4.57
2023-03-12T06:20:17.482Z,4.72
2023-03-12T06:25:18.177Z,4.94
2023-03-12T06:30:16.538Z,5.03
2023-03-12T06:35:17.534Z,5.09
2023-03-12T06:40:18.825Z,5.11
2023-03-12T06:45:19.373Z,5.22
2023-03-12T06:50:18.113Z,5.29
2023-03-12T06:55:17.275Z,5.30
2023-03-12T07:00:27.933Z,5.37
2023-03-12T07:05:28.804Z,5.63
2023-03-12T07:10:31.370Z,5.79
2023-03-12T07:15:29.697Z,5.80
2023-03-12T07:20:29.586Z,5.93
2023-03-12T07:25:35.755Z,5.97
2023-03-12T07:30:34.774Z,6.18
2023-03-12T07:35:32.970Z,6.26
2023-03-12T07:46:42.970Z,6.51
2023-03-12T07:51:41.572Z,6.55
2023-03-12T07:56:40.372Z,6.63
2023-03-12T08:01:38.959Z,6.72
2023-03-12T08:06:39.258Z,6.85
2023-03-12T08:11:38.586Z,7.03
2023-03-12T08:16:39.057Z,7.07
2023-03-12T08:21:37.409Z,7.20
2023-03-12T08:26:36.051Z,7.32
2023-03-12T08:31:34.849Z,7.28
2023-03-12T08:36:32.988Z,7.45
2023-03-12T08:41:31.922Z,7.65
2023-03-12T08:52:26.183Z,8.36
2023-03-12T08:57:25.382Z,8.83
2023-03-12T09:02:24.172Z,8.84
2023-03-12T09:07:22.719Z,8.85
2023-03-12T09:12:23.636Z,8.98
2023-03-12T09:17:22.005Z,9.10
2023-03-12T09:22:20.717Z,9.11
2023-03-12T09:27:17.916Z,9.30
2023-03-12T09:32:17.638Z,9.30
2023-03-12T09:37:14.845Z,9.42
2023-03-12T09:48:21.018Z,9.57
2023-03-12T09:53:37.935Z,9.57
2023-03-12T09:58:37.809Z,9.90
2023-03-12T10:03:54.810Z,10.18
2023-03-12T10:09:24.953Z,10.23
2023-03-12T10:14:51.054Z,10.29
2023-03-12T10:19:49.116Z,10.40
2023-03-12T10:24:51.461Z,10.58
2023-03-12T10:29:53.958Z,10.46
2023-03-12T10:35:03.460Z,10.24
2023-03-12T10:40:06.104Z,9.99
2023-03-12T10:45:09.729Z,9.84
2023-03-12T10:50:18.360Z,9.79
2023-03-12T10:55:23.588Z,9.83
2023-03-12T11:00:22.945Z,9.66
2023-03-12T11:05:21.997Z,9.98
2023-03-12T11:10:22.874Z,9.69
2023-03-12T11:15:22.146Z,9.79
2023-03-12T11:20:23.347Z,9.71
2023-03-12T11:25:25.552Z,9.70
2023-03-12T11:30:48.229Z,9.69
2023-03-12T11:36:07.234Z,9.89
2023-03-12T11:41:11.446Z,10.14
2023-03-12T11:46:28.526Z,10.33
2023-03-12T11:51:32.372Z,10.74
2023-03-12T11:56:30.708Z,10.99
2023-03-12T12:01:39.575Z,11.48
2023-03-12T12:07:11.597Z,11.64
2023-03-12T12:12:12.103Z,11.35
2023-03-12T12:17:13.001Z,10.87
2023-03-12T12:22:14.633Z,11.35
2023-03-12T12:27:22.298Z,11.55
2023-03-12T12:32:39.435Z,11.61
2023-03-12T12:37:45.224Z,11.25
2023-03-12T12:42:52.664Z,11.92
2023-03-12T12:47:57.795Z,12.04
2023-03-12T12:53:00.003Z,12.08
2023-03-12T12:58:06.371Z,11.99
2023-03-12T13:03:06.462Z,11.81
2023-03-12T13:08:05.017Z,11.82
2023-03-12T13:13:10.974Z,11.64
2023-03-12T13:18:18.991Z,11.48
2023-03-12T13:23:21.919Z,11.43
2023-03-12T13:28:56.698Z,11.62
2023-03-12T13:34:11.390Z,12.01
2023-03-12T13:39:15.373Z,12.26
2023-03-12T13:44:34.482Z,12.52
2023-03-12T13:49:52.401Z,12.60
2023-03-12T13:55:02.642Z,12.50
2023-03-12T14:00:12.127Z,13.03
2023-03-12T14:05:12.244Z,13.28
2023-03-12T14:10:14.513Z,13.89
2023-03-12T14:15:15.982Z,14.55
2023-03-12T14:20:21.711Z,15.66
2023-03-12T14:25:36.787Z,16.83
2023-03-12T14:30:44.221Z,18.59
2023-03-12T14:35:49.214Z,18.78
2023-03-12T14:41:14.208Z,18.36
2023-03-12T14:46:25.777Z,18.93
2023-03-12T14:51:26.263Z,18.33
2023-03-12T14:56:25.839Z,17.31
2023-03-12T15:01:28.104Z,16.12
2023-03-12T15:06:33.942Z,15.03
2023-03-12T15:11:32.817Z,14.26
2023-03-12T15:16:37.912Z,13.69
2023-03-12T15:21:42.330Z,13.12
2023-03-12T15:26:41.686Z,12.82
2023-03-12T15:31:43.428Z,12.66
2023-03-12T15:37:00.371Z,12.47
2023-03-12T15:42:11.510Z,12.23
2023-03-12T15:47:14.394Z,12.18
2023-03-12T15:52:22.343Z,11.95
2023-03-12T15:57:22.171Z,11.98
2023-03-12T16:02:35.148Z,12.00
2023-03-12T16:07:33.477Z,11.87
2023-03-12T16:12:34.197Z,11.88
2023-03-12T16:17:33.066Z,11.83
2023-03-12T16:22:32.943Z,11.60
2023-03-12T16:27:32.749Z,11.53
2023-03-12T16:32:32.318Z,11.55
2023-03-12T16:37:34.547Z,11.31
2023-03-12T16:42:37.938Z,11.43
2023-03-12T16:47:49.576Z,11.19
2023-03-12T16:52:51.252Z,11.18
2023-03-12T16:57:54.767Z,11.17
2023-03-12T17:02:57.819Z,11.13
2023-03-12T17:07:58.373Z,11.10
2023-03-12T17:12:56.834Z,11.03
2023-03-12T17:17:57.027Z,10.79
2023-03-12T17:22:55.265Z,10.58
2023-03-12T17:27:57.614Z,10.42
2023-03-12T17:33:06.866Z,10.24
2023-03-12T17:38:17.972Z,10.16
2023-03-12T17:43:18.523Z,9.90
2023-03-12T17:48:19.564Z,9.79
2023-03-12T17:53:17.792Z,9.73
2023-03-12T17:58:16.373Z,9.68
2023-03-12T18:03:17.706Z,9.52
2023-03-12T18:08:21.574Z,9.45
2023-03-12T18:13:24.890Z,9.41
2023-03-12T18:18:22.460Z,9.26
2023-03-12T18:23:20.455Z,9.26
2023-03-12T18:28:18.827Z,9.04
2023-03-12T18:33:17.568Z,9.03
2023-03-12T18:38:18.109Z,9.06
2023-03-12T18:43:21.734Z,8.88
2023-03-12T18:48:21.130Z,9.02
2023-03-12T18:53:20.931Z,9.04
2023-03-12T18:58:20.126Z,8.70
2023-03-12T19:03:19.219Z,8.85
2023-03-12T19:08:20.897Z,8.71
2023-03-12T19:13:20.657Z,8.50
2023-03-12T19:18:21.842Z,8.55
2023-03-12T19:23:22.549Z,8.51
2023-03-12T19:28:22.474Z,8.43
2023-03-12T19:33:20.590Z,8.20
2023-03-12T19:38:20.860Z,8.56
2023-03-12T19:43:23.457Z,8.38
2023-03-12T19:48:30.724Z,7.96
2023-03-12T19:53:32.409Z,8.27
2023-03-12T19:58:32.522Z,8.40
2023-03-12T20:03:43.122Z,8.30
2023-03-12T20:08:49.280Z,8.20
2023-03-12T20:13:47.523Z,8.06
2023-03-12T20:18:48.499Z,7.99
2023-03-12T20:23:47.755Z,8.19
2023-03-12T20:28:51.996Z,7.66
2023-03-12T20:33:50.331Z,7.71
2023-03-12T20:38:48.844Z,7.64
2023-03-12T20:43:46.552Z,7.54
2023-03-12T20:48:47.780Z,7.39
2023-03-12T20:53:46.312Z,7.37
2023-03-12T20:58:43.898Z,7.56
2023-03-12T21:03:43.673Z,7.52
2023-03-12T21:08:44.125Z,7.12
2023-03-12T21:13:41.731Z,7.05
2023-03-12T21:18:41.655Z,6.92
2023-03-12T21:23:42.903Z,6.68
2023-03-12T21:28:41.343Z,6.98
2023-03-12T21:33:42.221Z,6.88
2023-03-12T21:38:55.623Z,6.63
2023-03-12T21:43:52.995Z,6.80
2023-03-12T21:48:55.386Z,6.64
2023-03-12T21:53:54.476Z,6.55
2023-03-12T21:58:53.715Z,6.63
2023-03-12T22:04:17.533Z,6.50
2023-03-12T22:09:20.278Z,6.51
2023-03-12T22:14:22.356Z,6.30
2023-03-12T22:19:25.397Z,6.26
2023-03-12T22:24:30.055Z,6.24
2023-03-12T22:29:29.914Z,6.28
2023-03-12T22:34:29.652Z,6.07
2023-03-12T22:39:30.769Z,6.17
2023-03-12T22:44:29.403Z,6.29
2023-03-12T22:49:27.142Z,6.34
2023-03-12T22:54:29.220Z,6.29
2023-03-12T22:59:32.355Z,6.13
2023-03-12T23:04:30.124Z,6.08
2023-03-12T23:09:31.340Z,6.09
2023-03-12T23:14:33.630Z,5.86
2023-03-12T23:19:34.816Z,5.73
2023-03-12T23:24:33.723Z,5.69
2023-03-12T23:29:36.389Z,5.80
2023-03-12T23:34:35.310Z,5.63
2023-03-12T23:39:45.040Z,5.52
2023-03-12T23:44:58.192Z,5.47
2023-03-12T23:50:01.306Z,5.25
2023-03-12T23:54:59.400Z,5.41
